createdAt,value
2019-05-15T00:00:58.835Z,80.66
2019-05-15T00:03:25.165Z,80.85
2019-05-15T00:05:51.268Z,80.77
2019-05-15T00:08:18.347Z,80.58
2019-05-15T00:10:44.377Z,80.79
2019-05-15T00:13:10.299Z,80.78
2019-05-15T00:15:36.906Z,81.10
2019-05-15T00:18:03.007Z,81.34
2019-05-15T00:20:29.510Z,81.34
2019-05-15T00:22:55.753Z,81.50
2019-05-15T00:25:22.806Z,81.52
2019-05-15T00:27:49.286Z,81.49
2019-05-15T00:30:15.484Z,81.21
2019-05-15T00:32:41.539Z,80.91
2019-05-15T00:35:09.467Z,80.89
2019-05-15T00:37:35.685Z,81.02
2019-05-15T00:40:02.569Z,80.84
2019-05-15T00:42:28.769Z,80.67
2019-05-15T00:44:54.794Z,80.55
2019-05-15T00:47:20.916Z,80.74
2019-05-15T00:49:48.831Z,80.86
2019-05-15T00:52:15.093Z,81.03
2019-05-15T00:54:41.190Z,81.08
2019-05-15T00:57:08.563Z,80.82
2019-05-15T00:59:34.737Z,80.96
2019-05-15T01:02:00.640Z,80.55
2019-05-15T01:04:28.031Z,80.50
2019-05-15T01:06:54.402Z,80.35
2019-05-15T01:09:20.409Z,80.40
2019-05-15T01:11:48.629Z,80.28
2019-05-15T01:14:14.318Z,80.25
2019-05-15T01:16:40.417Z,80.31
2019-05-15T01:19:06.521Z,80.44
2019-05-15T01:21:32.608Z,80.62
2019-05-15T01:23:58.998Z,80.40
2019-05-15T01:26:25.222Z,80.44
2019-05-15T01:28:51.368Z,80.70
2019-05-15T01:31:19.083Z,80.76
2019-05-15T01:33:45.183Z,80.71
2019-05-15T01:36:11.200Z,80.65
2019-05-15T01:38:38.943Z,80.47
2019-05-15T01:41:05.006Z,80.45
2019-05-15T01:43:31.020Z,80.45
2019-05-15T01:45:58.874Z,80.19
2019-05-15T01:48:25.040Z,80.42
2019-05-15T01:50:51.155Z,80.42
2019-05-15T01:53:18.675Z,80.40
2019-05-15T01:55:44.974Z,80.38
2019-05-15T01:58:10.980Z,80.37
2019-05-15T02:00:39.191Z,80.26
2019-05-15T02:03:05.023Z,80.21
2019-05-15T02:05:31.123Z,80.23
2019-05-15T02:07:58.542Z,80.28
2019-05-15T02:10:24.784Z,80.29
2019-05-15T02:12:50.724Z,80.29
2019-05-15T02:15:18.983Z,80.13
2019-05-15T02:17:45.094Z,80.34
2019-05-15T02:20:11.606Z,80.22
2019-05-15T02:22:42.151Z,80.36
2019-05-15T02:25:08.258Z,80.13
2019-05-15T02:27:33.920Z,80.21
2019-05-15T02:30:15.941Z,80.08
2019-05-15T02:32:30.157Z,79.93
2019-05-15T02:34:58.868Z,79.91
2019-05-15T02:37:23.736Z,79.72
2019-05-15T02:39:49.825Z,79.77
2019-05-15T02:42:15.788Z,79.67
2019-05-15T02:44:41.787Z,79.89
2019-05-15T02:47:09.266Z,80.06
2019-05-15T02:49:35.410Z,80.08
2019-05-15T02:52:01.567Z,80.04
2019-05-15T02:54:29.927Z,80.00
2019-05-15T02:56:58.815Z,80.03
2019-05-15T02:59:23.609Z,80.04
2019-05-15T03:01:49.758Z,79.82
2019-05-15T03:04:15.855Z,79.67
2019-05-15T03:06:41.987Z,79.58
2019-05-15T03:09:09.576Z,79.65
2019-05-15T03:11:35.901Z,79.87
2019-05-15T03:14:02.141Z,79.83
2019-05-15T03:16:30.281Z,79.64
2019-05-15T03:18:59.566Z,79.66
2019-05-15T03:21:24.584Z,79.79
2019-05-15T03:23:51.003Z,79.84
2019-05-15T03:26:19.798Z,79.91
2019-05-15T03:28:45.204Z,79.90
2019-05-15T03:31:32.541Z,79.89
2019-05-15T03:33:45.851Z,79.84
2019-05-15T03:36:12.418Z,79.83
2019-05-15T03:38:35.250Z,79.83
2019-05-15T03:41:01.376Z,79.86
2019-05-15T03:43:29.308Z,79.99
2019-05-15T03:45:55.611Z,79.92
2019-05-15T03:48:21.726Z,79.87
2019-05-15T03:50:48.826Z,79.73
2019-05-15T03:53:15.158Z,79.55
2019-05-15T03:55:41.263Z,79.54
2019-05-15T03:58:09.928Z,79.62
2019-05-15T04:00:35.285Z,79.75
2019-05-15T04:03:01.305Z,79.83
2019-05-15T04:05:29.377Z,79.85
2019-05-15T04:07:55.439Z,79.92
2019-05-15T04:10:21.566Z,80.06
2019-05-15T04:12:49.264Z,80.18
2019-05-15T04:15:18.570Z,80.05
2019-05-15T04:17:43.749Z,80.04
2019-05-15T04:20:10.918Z,79.90
2019-05-15T04:22:39.951Z,79.92
2019-05-15T04:25:05.999Z,79.86
2019-05-15T04:27:33.789Z,79.84
2019-05-15T04:29:59.917Z,79.90
2019-05-15T04:32:28.947Z,79.78
2019-05-15T04:34:54.059Z,80.04
2019-05-15T04:37:20.157Z,80.17
2019-05-15T04:39:48.961Z,80.12
2019-05-15T04:42:14.210Z,79.93
2019-05-15T04:44:40.316Z,80.04
2019-05-15T04:47:09.455Z,79.95
2019-05-15T04:49:34.471Z,79.93
2019-05-15T04:52:03.639Z,79.92
2019-05-15T04:54:28.992Z,79.97
2019-05-15T04:56:55.128Z,79.94
2019-05-15T04:59:21.142Z,79.87
2019-05-15T05:01:51.294Z,79.88
2019-05-15T05:04:18.720Z,79.84
2019-05-15T05:06:43.711Z,80.02
2019-05-15T05:09:09.708Z,80.00
2019-05-15T05:11:38.329Z,79.86
2019-05-15T05:14:04.519Z,79.67
2019-05-15T05:16:30.618Z,79.70
2019-05-15T05:18:59.256Z,79.74
2019-05-15T05:21:24.774Z,79.73
2019-05-15T05:23:50.892Z,79.85
2019-05-15T05:26:18.488Z,79.93
2019-05-15T05:28:44.918Z,80.01
2019-05-15T05:31:14.030Z,80.01
2019-05-15T05:33:39.028Z,79.93
2019-05-15T05:36:05.155Z,79.86
2019-05-15T05:38:31.272Z,79.84
2019-05-15T05:40:58.623Z,80.10
2019-05-15T05:43:25.215Z,80.02
2019-05-15T05:45:51.323Z,79.80
2019-05-15T05:48:18.742Z,79.62
2019-05-15T05:50:45.775Z,79.70
2019-05-15T05:53:11.903Z,79.62
2019-05-15T05:55:38.522Z,79.67
2019-05-15T05:58:04.763Z,79.69
2019-05-15T06:00:34.073Z,79.93
2019-05-15T06:02:59.906Z,80.00
2019-05-15T06:05:28.098Z,79.87
2019-05-15T06:07:54.104Z,80.06
2019-05-15T06:10:20.113Z,80.04
2019-05-15T06:12:46.140Z,80.13
2019-05-15T06:15:12.589Z,80.21
2019-05-15T06:17:39.431Z,80.34
2019-05-15T06:20:07.997Z,80.15
2019-05-15T06:22:33.887Z,80.18
2019-05-15T06:24:59.805Z,80.26
2019-05-15T06:27:27.980Z,80.30
2019-05-15T06:29:53.771Z,80.29
2019-05-15T06:32:19.891Z,80.50
2019-05-15T06:34:45.813Z,80.69
2019-05-15T06:37:11.928Z,80.75
2019-05-15T06:39:39.129Z,80.88
2019-05-15T06:42:05.267Z,80.95
2019-05-15T06:44:31.414Z,80.86
2019-05-15T06:46:58.773Z,80.93
2019-05-15T06:49:24.971Z,81.00
2019-05-15T06:51:50.908Z,81.00
2019-05-15T06:54:18.906Z,81.07
2019-05-15T06:56:45.043Z,80.97
2019-05-15T06:59:11.031Z,81.05
2019-05-15T07:01:38.557Z,80.97
2019-05-15T07:04:05.004Z,80.64
2019-05-15T07:06:31.131Z,80.88
2019-05-15T07:08:58.631Z,80.48
2019-05-15T07:11:24.839Z,80.36
2019-05-15T07:13:50.951Z,80.39
2019-05-15T07:16:18.227Z,80.68
2019-05-15T07:18:44.268Z,80.66
2019-05-15T07:21:10.722Z,80.74
2019-05-15T07:23:38.657Z,80.77
2019-05-15T07:26:04.913Z,80.83
2019-05-15T07:28:30.926Z,80.87
2019-05-15T07:30:58.327Z,81.00
2019-05-15T07:33:38.833Z,81.05
2019-05-15T07:35:52.437Z,80.90
2019-05-15T07:38:18.551Z,80.97
2019-05-15T07:40:44.692Z,80.95
2019-05-15T07:43:10.567Z,81.04
2019-05-15T07:45:42.665Z,80.95
2019-05-15T07:48:04.729Z,81.09
2019-05-15T07:50:30.865Z,80.90
2019-05-15T07:52:59.015Z,80.81
2019-05-15T07:55:25.011Z,80.67
2019-05-15T07:57:51.201Z,80.79
2019-05-15T08:00:19.553Z,80.86
2019-05-15T08:02:47.835Z,80.65
2019-05-15T08:05:18.090Z,80.69
2019-05-15T08:07:43.832Z,80.35
2019-05-15T08:10:10.523Z,80.26
2019-05-15T08:12:38.933Z,80.35
2019-05-15T08:15:08.904Z,80.43
2019-05-15T08:17:35.121Z,80.34
2019-05-15T08:20:01.231Z,80.53
2019-05-15T08:22:28.489Z,80.65
2019-05-15T08:24:54.719Z,80.77
2019-05-15T08:27:23.611Z,80.63
2019-05-15T08:29:48.841Z,80.40
2019-05-15T08:32:14.961Z,80.55
2019-05-15T08:34:41.074Z,80.19
2019-05-15T08:37:07.980Z,80.39
2019-05-15T08:39:34.187Z,80.28
2019-05-15T08:42:00.099Z,80.13
2019-05-15T08:44:26.103Z,80.18
2019-05-15T08:46:52.060Z,79.96
2019-05-15T08:49:20.357Z,79.96
2019-05-15T08:51:48.477Z,79.80
2019-05-15T08:54:14.060Z,79.84
2019-05-15T08:56:40.175Z,79.78
2019-05-15T08:59:08.697Z,79.77
2019-05-15T09:01:34.533Z,80.01
2019-05-15T09:04:00.636Z,80.09
2019-05-15T09:06:29.199Z,80.10
2019-05-15T09:08:54.551Z,80.13
2019-05-15T09:11:20.663Z,80.00
2019-05-15T09:13:52.804Z,80.00
2019-05-15T09:16:14.684Z,80.00
2019-05-15T09:18:40.793Z,80.07
2019-05-15T09:21:08.815Z,79.96
2019-05-15T09:23:34.908Z,80.04
2019-05-15T09:26:01.024Z,79.71
2019-05-15T09:28:29.681Z,79.84
2019-05-15T09:30:55.054Z,79.90
2019-05-15T09:33:21.063Z,79.94
2019-05-15T09:35:49.101Z,80.18
2019-05-15T09:38:15.241Z,80.16
2019-05-15T09:40:46.172Z,80.22
2019-05-15T09:43:10.788Z,80.02
2019-05-15T09:45:38.125Z,80.15
2019-05-15T09:48:04.648Z,80.23
2019-05-15T09:50:30.784Z,80.18
2019-05-15T09:52:58.832Z,79.97
2019-05-15T09:55:24.840Z,79.75
2019-05-15T09:57:50.977Z,79.95
2019-05-15T10:00:18.998Z,80.08
2019-05-15T10:02:45.301Z,79.86
2019-05-15T10:05:12.482Z,79.88
2019-05-15T10:07:40.363Z,80.10
2019-05-15T10:10:08.751Z,79.80
2019-05-15T10:12:35.445Z,79.85
2019-05-15T10:15:05.296Z,79.84
2019-05-15T10:17:31.418Z,79.94
2019-05-15T10:19:58.288Z,80.06
2019-05-15T10:22:24.575Z,79.98
2019-05-15T10:24:51.113Z,79.93
2019-05-15T10:27:18.070Z,80.10
2019-05-15T10:29:44.149Z,80.21
2019-05-15T10:32:10.263Z,80.30
2019-05-15T10:34:38.481Z,80.22
2019-05-15T10:37:04.710Z,80.18
2019-05-15T10:39:31.416Z,80.16
2019-05-15T10:41:57.528Z,80.11
2019-05-15T10:44:23.565Z,80.17
2019-05-15T10:46:49.573Z,80.19
2019-05-15T10:49:15.678Z,80.23
2019-05-15T10:51:41.784Z,80.13
2019-05-15T10:54:08.501Z,80.22
2019-05-15T10:56:34.692Z,80.17
2019-05-15T10:59:00.832Z,80.09
2019-05-15T11:01:26.887Z,80.09
2019-05-15T11:03:52.981Z,80.14
2019-05-15T11:06:19.088Z,79.96
2019-05-15T11:08:45.191Z,79.99
2019-05-15T11:11:11.299Z,80.15
2019-05-15T11:13:38.160Z,79.92
2019-05-15T11:16:04.440Z,80.06
2019-05-15T11:18:30.840Z,79.91
2019-05-15T11:20:59.318Z,80.08
2019-05-15T11:23:25.064Z,80.02
2019-05-15T11:25:51.166Z,79.91
2019-05-15T11:28:17.284Z,80.04
2019-05-15T11:30:43.389Z,80.04
2019-05-15T11:33:09.830Z,80.00
2019-05-15T11:35:35.976Z,79.84
2019-05-15T11:38:02.082Z,79.91
2019-05-15T11:40:28.441Z,79.83
2019-05-15T11:42:54.512Z,80.06
2019-05-15T11:45:20.729Z,79.98
2019-05-15T11:47:48.321Z,80.12
2019-05-15T11:50:15.185Z,79.95
2019-05-15T11:52:41.318Z,79.95
2019-05-15T11:55:08.508Z,80.11
2019-05-15T11:57:42.325Z,80.05
2019-05-15T12:00:04.742Z,80.09
2019-05-15T12:02:31.127Z,79.97
2019-05-15T12:04:58.395Z,79.96
2019-05-15T12:07:24.652Z,80.13
2019-05-15T12:09:52.096Z,80.21
2019-05-15T12:12:18.258Z,80.22
2019-05-15T12:14:44.244Z,80.39
2019-05-15T12:17:15.171Z,80.42
2019-05-15T12:19:39.114Z,80.49
2019-05-15T12:22:05.376Z,80.56
2019-05-15T12:24:36.514Z,80.20
2019-05-15T12:29:28.551Z,80.05
2019-05-15T12:31:54.982Z,79.97
2019-05-15T12:34:21.080Z,79.63
2019-05-15T12:36:53.067Z,79.73
2019-05-15T12:39:20.711Z,79.67
2019-05-15T13:01:29.549Z,79.37
2019-05-15T13:03:57.848Z,79.46
2019-05-15T13:06:23.723Z,79.49
2019-05-15T13:08:49.817Z,79.48
2019-05-15T13:11:17.874Z,79.54
2019-05-15T13:13:43.969Z,79.58
2019-05-15T13:16:10.113Z,79.69
2019-05-15T13:18:38.623Z,79.81
2019-05-15T13:21:04.225Z,79.77
2019-05-15T13:23:30.246Z,79.74
2019-05-15T13:25:58.772Z,79.94
2019-05-15T13:28:24.385Z,79.74
2019-05-15T13:30:50.487Z,79.88
2019-05-15T13:33:16.587Z,79.92
2019-05-15T13:35:45.513Z,79.97
2019-05-15T13:38:10.554Z,79.84
2019-05-15T13:40:38.913Z,79.87
2019-05-15T13:43:04.687Z,79.94
2019-05-15T13:45:30.725Z,80.13
2019-05-15T13:47:56.863Z,80.34
2019-05-15T13:50:22.968Z,80.33
2019-05-15T13:52:48.988Z,80.51
2019-05-15T13:55:15.144Z,80.62
2019-05-15T13:57:41.859Z,80.57
2019-05-15T14:00:08.928Z,80.61
2019-05-15T14:02:35.189Z,80.68
2019-05-15T14:05:01.337Z,80.61
2019-05-15T14:07:33.125Z,80.70
2019-05-15T14:09:59.690Z,80.93
2019-05-15T14:12:24.058Z,80.80
2019-05-15T14:14:50.218Z,80.91
2019-05-15T14:17:16.325Z,81.04
2019-05-15T14:19:42.460Z,81.01
2019-05-15T14:22:08.396Z,81.13
2019-05-15T14:24:34.503Z,81.31
2019-05-15T14:27:00.614Z,81.27
2019-05-15T14:29:28.949Z,81.23
2019-05-15T14:31:54.539Z,81.37
2019-05-15T14:34:20.560Z,81.47
2019-05-15T14:36:48.307Z,81.48
2019-05-15T14:39:14.526Z,81.52
2019-05-15T14:41:40.735Z,81.85
2019-05-15T14:44:16.767Z,81.80
2019-05-15T14:46:34.690Z,81.72
2019-05-15T14:49:00.802Z,81.41
2019-05-15T14:51:28.530Z,81.43
2019-05-15T14:53:54.777Z,81.61
2019-05-15T14:56:21.338Z,81.87
2019-05-15T14:58:48.037Z,81.98
2019-05-15T15:01:14.311Z,82.19
2019-05-15T15:03:40.477Z,82.24
2019-05-15T15:06:08.663Z,82.21
2019-05-15T15:08:34.547Z,82.26
2019-05-15T15:11:00.569Z,82.49
2019-05-15T15:13:28.797Z,82.50
2019-05-15T15:15:55.035Z,82.63
2019-05-15T15:18:21.173Z,82.56
2019-05-15T15:20:48.441Z,82.39
2019-05-15T15:23:14.716Z,82.22
2019-05-15T15:25:40.734Z,82.53
2019-05-15T15:28:08.374Z,82.76
2019-05-15T15:30:34.725Z,82.89
2019-05-15T15:33:01.431Z,83.06
2019-05-15T15:35:28.918Z,83.10
2019-05-15T15:37:55.212Z,83.06
2019-05-15T15:40:21.320Z,82.99
2019-05-15T15:42:48.507Z,82.96
2019-05-15T15:45:15.471Z,82.90
2019-05-15T15:47:41.603Z,83.02
2019-05-15T15:50:09.457Z,83.08
2019-05-15T15:52:38.319Z,83.14
2019-05-15T15:55:04.560Z,83.12
2019-05-15T15:57:30.606Z,83.11
2019-05-15T15:59:56.704Z,83.17
2019-05-15T16:02:22.844Z,83.19
2019-05-15T16:04:48.896Z,83.22
2019-05-15T16:07:15.020Z,83.19
2019-05-15T16:09:41.131Z,83.18
2019-05-15T16:12:09.680Z,83.12
2019-05-15T16:14:35.364Z,83.12
2019-05-15T16:17:01.510Z,83.18
2019-05-15T16:19:28.353Z,83.21
2019-05-15T16:21:54.826Z,83.24
2019-05-15T16:24:21.920Z,83.24
2019-05-15T16:26:49.826Z,83.18
2019-05-15T16:29:18.288Z,83.20
2019-05-15T16:31:44.557Z,83.22
2019-05-15T16:34:10.872Z,83.22
2019-05-15T16:36:38.524Z,83.28
2019-05-15T16:39:09.182Z,83.31
2019-05-15T16:41:33.303Z,83.30
2019-05-15T16:43:59.444Z,83.27
2019-05-15T16:46:25.461Z,83.24
2019-05-15T16:48:51.508Z,83.21
2019-05-15T16:51:18.023Z,83.26
2019-05-15T16:53:44.228Z,83.28
2019-05-15T16:56:10.253Z,83.34
2019-05-15T16:58:38.496Z,83.43
2019-05-15T17:01:04.305Z,83.41
2019-05-15T17:03:30.420Z,83.39
2019-05-15T17:05:58.552Z,83.35
2019-05-15T17:08:24.447Z,83.33
2019-05-15T17:10:50.750Z,83.44
2019-05-15T17:13:16.752Z,83.46
2019-05-15T17:15:42.859Z,83.47
2019-05-15T17:18:09.137Z,83.44
2019-05-15T17:20:35.275Z,83.32
2019-05-15T17:23:01.212Z,83.29
2019-05-15T17:25:27.355Z,83.30
2019-05-15T17:27:53.301Z,83.36
2019-05-15T17:30:19.518Z,83.34
2019-05-15T17:32:45.845Z,83.29
2019-05-15T17:35:12.131Z,83.32
2019-05-15T17:37:38.929Z,83.32
2019-05-15T17:40:05.690Z,83.30
2019-05-15T17:42:31.705Z,83.43
2019-05-15T17:44:58.022Z,83.43
2019-05-15T17:47:24.136Z,83.43
2019-05-15T17:49:50.137Z,83.49
2019-05-15T17:52:18.333Z,83.45
2019-05-15T17:54:45.164Z,83.48
2019-05-15T17:57:11.513Z,83.53
2019-05-15T17:59:37.972Z,83.54
2019-05-15T18:02:04.267Z,83.67
2019-05-15T18:04:30.270Z,83.63
2019-05-15T18:06:58.897Z,83.62
2019-05-15T18:09:24.430Z,83.59
2019-05-15T18:11:50.542Z,83.54
2019-05-15T18:14:16.651Z,83.62
2019-05-15T18:16:42.852Z,83.82
2019-05-15T18:19:08.984Z,83.82
2019-05-15T18:21:38.129Z,83.86
2019-05-15T18:24:04.630Z,83.79
2019-05-15T18:26:30.744Z,83.67
2019-05-15T18:28:58.567Z,83.62
2019-05-15T18:31:24.787Z,83.65
2019-05-15T18:33:53.663Z,83.67
2019-05-15T18:36:18.698Z,83.69
2019-05-15T18:38:44.602Z,83.78
2019-05-15T18:41:10.711Z,83.69
2019-05-15T18:43:37.791Z,83.82
2019-05-15T18:46:04.033Z,83.80
2019-05-15T18:48:30.053Z,83.87
2019-05-15T18:50:56.156Z,83.77
2019-05-15T18:53:22.264Z,83.79
2019-05-15T18:55:48.811Z,83.81
2019-05-15T18:58:15.304Z,83.80
2019-05-15T19:00:41.420Z,83.93
2019-05-15T19:03:19.088Z,83.90
2019-05-15T19:05:35.576Z,83.80
2019-05-15T19:08:01.680Z,83.81
2019-05-15T19:10:28.353Z,83.77
2019-05-15T19:12:54.409Z,83.80
2019-05-15T19:15:20.529Z,83.85
2019-05-15T19:17:47.804Z,83.98
2019-05-15T19:20:15.309Z,84.06
2019-05-15T19:22:41.428Z,84.06
2019-05-15T19:25:08.851Z,84.00
2019-05-15T19:27:35.224Z,83.88
2019-05-15T19:30:01.525Z,83.86
2019-05-15T19:32:27.936Z,83.95
2019-05-15T19:34:54.153Z,83.92
2019-05-15T19:37:20.276Z,84.01
2019-05-15T19:39:47.974Z,83.92
2019-05-15T19:42:14.294Z,83.90
2019-05-15T19:44:40.398Z,83.92
2019-05-15T19:47:07.953Z,83.83
2019-05-15T19:49:34.039Z,83.74
2019-05-15T19:52:00.087Z,83.69
2019-05-15T19:54:26.331Z,83.62
2019-05-15T19:56:52.982Z,83.57
2019-05-15T19:59:22.396Z,83.61
2019-05-15T20:01:48.606Z,83.60
2019-05-15T20:04:14.862Z,83.83
2019-05-15T20:06:40.998Z,83.87
2019-05-15T20:09:07.777Z,83.93
2019-05-15T20:11:34.068Z,83.96
2019-05-15T20:14:00.083Z,83.97
2019-05-15T20:16:28.190Z,84.17
2019-05-15T20:18:54.123Z,84.14
2019-05-15T20:21:20.395Z,84.00
2019-05-15T20:23:48.497Z,83.86
2019-05-15T20:26:14.343Z,83.83
2019-05-15T20:28:40.351Z,83.68
2019-05-15T20:31:07.939Z,83.74
2019-05-15T20:33:34.187Z,83.81
2019-05-15T20:36:00.292Z,83.88
2019-05-15T20:38:28.534Z,83.77
2019-05-15T20:40:54.411Z,83.73
2019-05-15T20:43:20.517Z,83.73
2019-05-15T20:45:48.409Z,83.75
2019-05-15T20:48:14.544Z,83.77
2019-05-15T20:50:40.451Z,83.82
2019-05-15T20:53:06.547Z,84.01
2019-05-15T20:55:32.648Z,84.17
2019-05-15T20:57:58.862Z,84.11
2019-05-15T21:00:25.072Z,84.03
2019-05-15T21:02:51.090Z,83.92
2019-05-15T21:05:18.687Z,83.96
2019-05-15T21:07:44.904Z,84.06
2019-05-15T21:10:11.320Z,84.03
2019-05-15T21:12:40.528Z,84.05
2019-05-15T21:15:08.399Z,83.96
2019-05-15T21:17:34.232Z,83.78
2019-05-15T21:20:01.194Z,83.70
2019-05-15T21:22:28.321Z,83.71
2019-05-15T21:24:54.454Z,83.76
2019-05-15T21:27:24.313Z,83.69
2019-05-15T21:29:49.015Z,83.68
2019-05-15T21:32:15.391Z,83.65
2019-05-15T21:34:44.366Z,83.62
2019-05-15T21:37:09.802Z,83.66
2019-05-15T21:39:35.889Z,83.70
2019-05-15T21:42:01.918Z,83.78
2019-05-15T21:44:29.345Z,84.04
2019-05-15T21:46:55.570Z,84.16
2019-05-15T21:49:21.577Z,84.13
2019-05-15T21:51:48.008Z,84.07
2019-05-15T21:54:14.120Z,83.94
2019-05-15T21:56:40.397Z,83.93
2019-05-15T21:59:08.217Z,83.91
2019-05-15T22:01:34.576Z,83.97
2019-05-15T22:04:00.718Z,84.19
2019-05-15T22:06:29.087Z,84.21
2019-05-15T22:08:54.741Z,84.05
2019-05-15T22:11:21.917Z,83.94
2019-05-15T22:13:48.540Z,83.94
2019-05-15T22:16:15.015Z,83.93
2019-05-15T22:18:41.416Z,83.94
2019-05-15T22:21:07.957Z,83.89
2019-05-15T22:23:34.029Z,83.87
2019-05-15T22:26:00.138Z,83.84
2019-05-15T22:28:28.250Z,83.84
2019-05-15T22:30:54.269Z,83.87
2019-05-15T22:33:20.274Z,83.96
2019-05-15T22:35:48.879Z,83.89
2019-05-15T22:38:14.655Z,83.99
2019-05-15T22:40:41.382Z,84.03
2019-05-15T22:43:07.801Z,84.05
2019-05-15T22:45:37.615Z,84.02
2019-05-15T22:48:03.512Z,84.03
2019-05-15T22:50:29.621Z,84.02
2019-05-15T22:52:58.390Z,84.04
2019-05-15T22:55:23.755Z,84.11
2019-05-15T22:57:49.687Z,84.15
2019-05-15T23:00:16.494Z,84.14
2019-05-15T23:02:42.957Z,84.22
2019-05-15T23:05:23.158Z,84.22
2019-05-15T23:07:38.988Z,84.15
2019-05-15T23:10:06.029Z,84.13
2019-05-15T23:12:32.134Z,84.10
2019-05-15T23:14:58.264Z,84.01
2019-05-15T23:17:24.269Z,84.06
2019-05-15T23:19:50.300Z,84.07
2019-05-15T23:22:18.539Z,84.01
2019-05-15T23:24:44.238Z,84.04
2019-05-15T23:27:10.341Z,84.15
2019-05-15T23:29:38.526Z,84.14
2019-05-15T23:32:04.461Z,84.13
2019-05-15T23:34:30.507Z,84.13
2019-05-15T23:36:57.714Z,84.00
2019-05-15T23:39:23.817Z,83.91
2019-05-15T23:41:49.866Z,83.83
2019-05-15T23:44:18.231Z,83.85
2019-05-15T23:46:43.898Z,83.82
2019-05-15T23:49:09.903Z,83.80
2019-05-15T23:51:38.330Z,83.76
2019-05-15T23:54:03.953Z,83.75
2019-05-15T23:56:30.097Z,83.77
2019-05-15T23:58:55.999Z,83.77
